createdAt,value
2022-11-17T00:00:29.233Z,975.90
2022-11-17T00:01:29.216Z,975.90
2022-11-17T00:02:29.321Z,975.87
2022-11-17T00:03:29.200Z,975.90
2022-11-17T00:04:29.220Z,975.87
2022-11-17T00:05:29.181Z,975.88
2022-11-17T00:06:29.172Z,975.79
2022-11-17T00:07:29.293Z,975.83
2022-11-17T00:08:29.166Z,975.82
2022-11-17T00:09:29.180Z,975.86
2022-11-17T00:10:29.143Z,975.85
2022-11-17T00:11:29.139Z,975.79
2022-11-17T00:12:32.839Z,975.79
2022-11-17T00:13:30.122Z,975.86
2022-11-17T00:14:29.139Z,975.82
2022-11-17T00:15:29.113Z,975.80
2022-11-17T00:16:29.109Z,975.84
2022-11-17T00:17:29.098Z,975.86
2022-11-17T00:18:29.083Z,975.85
2022-11-17T00:19:29.110Z,975.85
2022-11-17T00:20:29.071Z,975.82
2022-11-17T00:21:29.062Z,975.84
2022-11-17T00:22:29.055Z,975.85
2022-11-17T00:23:29.123Z,975.78
2022-11-17T00:24:29.063Z,975.86
2022-11-17T00:25:29.029Z,975.80
2022-11-17T00:26:29.021Z,975.72
2022-11-17T00:27:29.018Z,975.75
2022-11-17T00:28:29.003Z,975.79
2022-11-17T00:29:29.021Z,975.77
2022-11-17T00:30:28.992Z,975.72
2022-11-17T00:31:28.979Z,975.66
2022-11-17T00:32:28.973Z,975.72
2022-11-17T00:33:28.968Z,975.71
2022-11-17T00:34:28.985Z,975.74
2022-11-17T00:35:28.953Z,975.64
2022-11-17T00:36:28.942Z,975.59
2022-11-17T00:37:28.936Z,975.51
2022-11-17T00:38:28.926Z,975.53
2022-11-17T00:39:29.020Z,975.56
2022-11-17T00:40:28.929Z,975.47
2022-11-17T00:41:28.912Z,975.48
2022-11-17T00:42:28.895Z,975.50
2022-11-17T00:43:28.889Z,975.46
2022-11-17T00:44:28.906Z,975.45
2022-11-17T00:45:28.880Z,975.44
2022-11-17T00:46:28.868Z,975.48
2022-11-17T00:47:28.859Z,975.52
2022-11-17T00:48:28.855Z,975.44
2022-11-17T00:49:28.871Z,975.49
2022-11-17T00:50:28.833Z,975.41
2022-11-17T00:51:28.826Z,975.39
2022-11-17T00:52:28.821Z,975.42
2022-11-17T00:53:28.813Z,975.40
2022-11-17T00:54:28.827Z,975.42
2022-11-17T00:55:28.984Z,975.37
2022-11-17T00:56:28.787Z,975.35
2022-11-17T00:57:28.785Z,975.34
2022-11-17T00:58:28.776Z,975.34
2022-11-17T00:59:28.768Z,975.29
2022-11-17T01:00:28.783Z,975.29
2022-11-17T01:01:28.767Z,975.24
2022-11-17T01:02:28.745Z,975.28
2022-11-17T01:03:28.737Z,975.31
2022-11-17T01:04:28.723Z,975.24
2022-11-17T01:05:32.872Z,975.24
2022-11-17T01:06:29.714Z,975.27
2022-11-17T01:07:28.768Z,975.22
2022-11-17T01:08:28.694Z,975.22
2022-11-17T01:09:28.691Z,975.23
2022-11-17T01:10:28.702Z,975.24
2022-11-17T01:11:28.743Z,975.19
2022-11-17T01:12:28.661Z,975.18
2022-11-17T01:13:28.657Z,975.18
2022-11-17T01:14:28.646Z,975.20
2022-11-17T01:15:28.666Z,975.19
2022-11-17T01:16:28.652Z,975.08
2022-11-17T01:17:28.629Z,975.01
2022-11-17T01:18:28.618Z,975.11
2022-11-17T01:19:28.606Z,975.08
2022-11-17T01:20:28.629Z,975.04
2022-11-17T01:21:28.611Z,975.00
2022-11-17T01:22:28.585Z,974.99
2022-11-17T01:23:28.600Z,974.97
2022-11-17T01:24:28.566Z,974.95
2022-11-17T01:25:28.598Z,974.91
2022-11-17T01:26:28.552Z,974.96
2022-11-17T01:27:28.547Z,974.94
2022-11-17T01:28:28.542Z,974.92
2022-11-17T01:29:28.528Z,974.93
2022-11-17T01:30:28.549Z,974.89
2022-11-17T01:31:28.514Z,974.88
2022-11-17T01:32:28.504Z,974.93
2022-11-17T01:33:28.498Z,974.90
2022-11-17T01:34:28.492Z,974.87
2022-11-17T01:35:28.514Z,974.84
2022-11-17T01:36:28.477Z,974.81
2022-11-17T01:37:28.469Z,974.85
2022-11-17T01:38:28.464Z,974.88
2022-11-17T01:39:28.458Z,974.78
2022-11-17T01:40:28.471Z,974.84
2022-11-17T01:41:28.440Z,974.83
2022-11-17T01:42:28.432Z,974.76
2022-11-17T01:43:28.497Z,974.79
2022-11-17T01:44:28.415Z,974.81
2022-11-17T01:45:28.424Z,974.76
2022-11-17T01:46:28.422Z,974.76
2022-11-17T01:47:28.392Z,974.81
2022-11-17T01:48:28.381Z,974.70
2022-11-17T01:49:28.371Z,974.74
2022-11-17T01:50:28.371Z,974.73
2022-11-17T01:51:28.381Z,974.67
2022-11-17T01:52:28.354Z,974.64
2022-11-17T01:53:28.342Z,974.67
2022-11-17T01:54:28.336Z,974.66
2022-11-17T01:55:28.327Z,974.62
2022-11-17T01:56:28.342Z,974.57
2022-11-17T01:57:28.325Z,974.49
2022-11-17T01:58:28.301Z,974.54
2022-11-17T01:59:28.364Z,974.46
2022-11-17T02:00:28.293Z,974.49
2022-11-17T02:01:28.334Z,974.48
2022-11-17T02:02:28.274Z,974.44
2022-11-17T02:03:28.263Z,974.52
2022-11-17T02:04:28.259Z,974.51
2022-11-17T02:05:28.248Z,974.40
2022-11-17T02:06:28.264Z,974.42
2022-11-17T02:07:28.301Z,974.47
2022-11-17T02:08:28.228Z,974.43
2022-11-17T02:09:28.217Z,974.36
2022-11-17T02:10:28.223Z,974.32
2022-11-17T02:11:28.230Z,974.29
2022-11-17T02:12:28.189Z,974.32
2022-11-17T02:13:28.185Z,974.29
2022-11-17T02:14:28.178Z,974.28
2022-11-17T02:15:28.169Z,974.18
2022-11-17T02:16:28.183Z,974.14
2022-11-17T02:17:28.153Z,974.15
2022-11-17T02:18:28.146Z,974.14
2022-11-17T02:19:28.138Z,974.05
2022-11-17T02:20:28.128Z,974.13
2022-11-17T02:21:28.145Z,974.09
2022-11-17T02:22:28.112Z,973.98
2022-11-17T02:23:28.104Z,973.95
2022-11-17T02:24:28.095Z,974.02
2022-11-17T02:25:28.088Z,973.88
2022-11-17T02:26:28.110Z,973.89
2022-11-17T02:27:28.071Z,973.91
2022-11-17T02:28:28.065Z,973.83
2022-11-17T02:29:28.057Z,973.82
2022-11-17T02:30:28.046Z,973.84
2022-11-17T02:31:28.280Z,973.85
2022-11-17T02:32:28.036Z,973.87
2022-11-17T02:33:28.023Z,973.94
2022-11-17T02:34:28.014Z,973.96
2022-11-17T02:35:28.005Z,973.94
2022-11-17T02:36:28.023Z,973.90
2022-11-17T02:37:27.991Z,973.85
2022-11-17T02:38:27.982Z,973.89
2022-11-17T02:39:27.971Z,973.86
2022-11-17T02:40:27.962Z,973.80
2022-11-17T02:41:27.986Z,973.82
2022-11-17T02:42:27.946Z,973.79
2022-11-17T02:43:27.937Z,973.81
2022-11-17T02:44:27.931Z,973.74
2022-11-17T02:45:27.920Z,973.72
2022-11-17T02:46:27.910Z,973.79
2022-11-17T02:47:27.924Z,973.74
2022-11-17T02:48:27.895Z,973.74
2022-11-17T02:49:27.891Z,973.69
2022-11-17T02:50:28.575Z,973.68
2022-11-17T02:51:28.869Z,973.68
2022-11-17T02:52:27.885Z,973.62
2022-11-17T02:53:27.857Z,973.63
2022-11-17T02:54:27.849Z,973.62
2022-11-17T02:55:27.854Z,973.57
2022-11-17T02:56:27.830Z,973.55
2022-11-17T02:57:27.843Z,973.50
2022-11-17T02:58:27.819Z,973.60
2022-11-17T02:59:27.835Z,973.52
2022-11-17T03:00:27.801Z,973.45
2022-11-17T03:01:27.828Z,973.46
2022-11-17T03:02:27.788Z,973.44
2022-11-17T03:03:27.772Z,973.49
2022-11-17T03:04:27.785Z,973.41
2022-11-17T03:05:27.756Z,973.41
2022-11-17T03:06:27.749Z,973.45
2022-11-17T03:07:27.791Z,973.40
2022-11-17T03:08:32.803Z,973.37
2022-11-17T03:09:29.772Z,973.39
2022-11-17T03:10:27.718Z,973.34
2022-11-17T03:11:27.708Z,973.35
2022-11-17T03:12:27.705Z,973.33
2022-11-17T03:13:27.690Z,973.29
2022-11-17T03:14:27.704Z,973.30
2022-11-17T03:15:27.677Z,973.19
2022-11-17T03:16:27.671Z,973.13
2022-11-17T03:17:27.665Z,973.18
2022-11-17T03:18:27.657Z,973.10
2022-11-17T03:19:27.676Z,973.17
2022-11-17T03:20:27.638Z,973.16
2022-11-17T03:21:27.629Z,973.12
2022-11-17T03:22:27.628Z,973.16
2022-11-17T03:23:27.616Z,973.12
2022-11-17T03:24:27.638Z,973.20
2022-11-17T03:25:27.596Z,973.12
2022-11-17T03:26:27.590Z,973.14
2022-11-17T03:27:27.586Z,973.15
2022-11-17T03:28:27.576Z,973.12
2022-11-17T03:29:27.571Z,973.07
2022-11-17T03:30:27.583Z,973.03
2022-11-17T03:31:27.556Z,973.03
2022-11-17T03:32:27.548Z,973.11
2022-11-17T03:33:27.541Z,973.04
2022-11-17T03:34:27.537Z,972.95
2022-11-17T03:35:27.640Z,973.01
2022-11-17T03:36:27.517Z,972.86
2022-11-17T03:37:27.514Z,972.84
2022-11-17T03:38:27.508Z,972.79
2022-11-17T03:39:27.498Z,972.74
2022-11-17T03:40:27.518Z,972.74
2022-11-17T03:41:27.481Z,972.78
2022-11-17T03:42:27.469Z,972.79
2022-11-17T03:43:27.466Z,972.74
2022-11-17T03:44:27.460Z,972.77
2022-11-17T03:45:27.473Z,972.70
2022-11-17T03:46:27.441Z,972.77
2022-11-17T03:47:27.434Z,972.72
2022-11-17T03:48:27.422Z,972.72
2022-11-17T03:49:27.413Z,972.75
2022-11-17T03:50:27.430Z,972.73
2022-11-17T03:51:27.472Z,972.70
2022-11-17T03:52:27.386Z,972.73
2022-11-17T03:53:27.379Z,972.75
2022-11-17T03:54:27.375Z,972.67
2022-11-17T03:55:27.386Z,972.58
2022-11-17T03:56:27.357Z,972.62
2022-11-17T03:57:27.334Z,972.70
2022-11-17T03:58:28.343Z,972.63
2022-11-17T03:59:27.334Z,972.57
2022-11-17T04:00:27.353Z,972.54
2022-11-17T04:01:27.357Z,972.58
2022-11-17T04:02:27.309Z,972.48
2022-11-17T04:03:27.306Z,972.60
2022-11-17T04:04:27.293Z,972.58
2022-11-17T04:05:27.311Z,972.52
2022-11-17T04:06:27.282Z,972.62
2022-11-17T04:07:27.437Z,972.55
2022-11-17T04:08:27.264Z,972.54
2022-11-17T04:09:27.254Z,972.56
2022-11-17T04:10:27.271Z,972.59
2022-11-17T04:11:27.247Z,972.49
2022-11-17T04:12:27.229Z,972.45
2022-11-17T04:13:27.221Z,972.50
2022-11-17T04:14:27.213Z,972.48
2022-11-17T04:15:27.236Z,972.41
2022-11-17T04:16:27.198Z,972.50
2022-11-17T04:17:27.191Z,972.44
2022-11-17T04:18:27.227Z,972.51
2022-11-17T04:19:27.179Z,972.46
2022-11-17T04:20:27.194Z,972.46
2022-11-17T04:21:27.159Z,972.46
2022-11-17T04:22:27.156Z,972.48
2022-11-17T04:23:27.147Z,972.49
2022-11-17T04:24:27.138Z,972.48
2022-11-17T04:25:27.154Z,972.50
2022-11-17T04:26:27.123Z,972.54
2022-11-17T04:27:27.116Z,972.51
2022-11-17T04:28:27.110Z,972.47
2022-11-17T04:29:27.099Z,972.55
2022-11-17T04:30:27.123Z,972.47
2022-11-17T04:31:27.085Z,972.47
2022-11-17T04:32:27.074Z,972.45
2022-11-17T04:33:27.065Z,972.49
2022-11-17T04:34:28.062Z,972.48
2022-11-17T04:35:27.054Z,972.47
2022-11-17T04:36:27.070Z,972.45
2022-11-17T04:37:27.035Z,972.37
2022-11-17T04:38:27.027Z,972.41
2022-11-17T04:39:27.093Z,972.47
2022-11-17T04:40:27.015Z,972.48
2022-11-17T04:41:27.028Z,972.39
2022-11-17T04:42:27.001Z,972.51
2022-11-17T04:43:26.993Z,972.53
2022-11-17T04:44:26.990Z,972.52
2022-11-17T04:45:26.977Z,972.53
2022-11-17T04:46:26.989Z,972.62
2022-11-17T04:47:26.962Z,972.54
2022-11-17T04:48:26.950Z,972.54
2022-11-17T04:49:26.947Z,972.52
2022-11-17T04:50:26.940Z,972.46
2022-11-17T04:51:26.951Z,972.51
2022-11-17T04:52:29.741Z,972.57
2022-11-17T04:53:27.913Z,972.45
2022-11-17T04:54:26.907Z,972.51
2022-11-17T04:55:26.897Z,972.55
2022-11-17T04:56:26.917Z,972.50
2022-11-17T04:57:26.891Z,972.45
2022-11-17T04:58:26.876Z,972.48
2022-11-17T04:59:26.870Z,972.49
2022-11-17T05:00:26.861Z,972.48
2022-11-17T05:01:26.878Z,972.37
2022-11-17T05:02:26.892Z,972.47
2022-11-17T05:03:26.829Z,972.43
2022-11-17T05:04:27.824Z,972.41
2022-11-17T05:05:26.824Z,972.37
2022-11-17T05:06:26.843Z,972.36
2022-11-17T05:07:26.860Z,972.30
2022-11-17T05:08:26.800Z,972.22
2022-11-17T05:09:26.797Z,972.29
2022-11-17T05:10:26.783Z,972.30
2022-11-17T05:11:26.888Z,972.29
2022-11-17T05:12:26.766Z,972.25
2022-11-17T05:13:26.755Z,972.22
2022-11-17T05:14:26.744Z,972.16
2022-11-17T05:15:26.742Z,972.16
2022-11-17T05:16:26.754Z,972.10
2022-11-17T05:17:26.734Z,972.12
2022-11-17T05:18:26.712Z,972.05
2022-11-17T05:19:26.712Z,972.07
2022-11-17T05:20:26.705Z,971.97
2022-11-17T05:21:26.713Z,972.00
2022-11-17T05:22:26.690Z,972.02
2022-11-17T05:23:26.682Z,972.07
2022-11-17T05:24:26.670Z,972.06
2022-11-17T05:25:26.663Z,971.98
2022-11-17T05:26:26.682Z,972.06
2022-11-17T05:27:26.646Z,971.98
2022-11-17T05:28:26.639Z,971.93
2022-11-17T05:29:26.631Z,971.99
2022-11-17T05:30:26.624Z,971.88
2022-11-17T05:31:26.660Z,971.82
2022-11-17T05:32:26.606Z,971.90
2022-11-17T05:33:26.595Z,971.91
2022-11-17T05:34:26.594Z,971.83
2022-11-17T05:35:26.580Z,971.86
2022-11-17T05:36:26.572Z,971.82
2022-11-17T05:37:26.598Z,971.90
2022-11-17T05:38:26.559Z,971.90
2022-11-17T05:39:26.548Z,971.92
2022-11-17T05:40:26.543Z,971.80
2022-11-17T05:41:26.565Z,971.85
2022-11-17T05:42:26.527Z,971.89
2022-11-17T05:43:26.590Z,971.85
2022-11-17T05:44:26.507Z,971.84
2022-11-17T05:45:26.500Z,971.80
2022-11-17T05:46:26.486Z,971.79
2022-11-17T05:47:26.510Z,971.72
2022-11-17T05:48:26.478Z,971.70
2022-11-17T05:49:26.475Z,971.69
2022-11-17T05:50:26.460Z,971.72
2022-11-17T05:51:26.452Z,971.81
2022-11-17T05:52:26.476Z,971.73
2022-11-17T05:53:26.438Z,971.78
2022-11-17T05:54:26.442Z,971.73
2022-11-17T05:55:26.426Z,971.77
2022-11-17T05:56:26.421Z,971.70
2022-11-17T05:57:26.443Z,971.77
2022-11-17T05:58:26.402Z,971.80
2022-11-17T05:59:28.187Z,971.79
2022-11-17T06:00:27.379Z,971.87
2022-11-17T06:01:26.385Z,971.79
2022-11-17T06:02:26.397Z,971.92
2022-11-17T06:03:27.359Z,971.85
2022-11-17T06:04:26.437Z,971.90
2022-11-17T06:05:26.346Z,971.84
2022-11-17T06:06:26.337Z,971.86
2022-11-17T06:07:26.397Z,971.87
2022-11-17T06:08:26.326Z,971.86
2022-11-17T06:09:26.330Z,971.93
2022-11-17T06:10:26.307Z,972.00
2022-11-17T06:11:26.292Z,971.91
2022-11-17T06:12:26.316Z,971.91
2022-11-17T06:13:26.286Z,971.91
2022-11-17T06:14:26.278Z,971.88
2022-11-17T06:15:26.274Z,971.93
2022-11-17T06:16:26.258Z,971.84
2022-11-17T06:17:26.281Z,971.85
2022-11-17T06:18:26.242Z,971.77
2022-11-17T06:19:26.232Z,971.81
2022-11-17T06:20:26.225Z,971.85
2022-11-17T06:21:26.222Z,971.75
2022-11-17T06:22:26.239Z,971.78
2022-11-17T06:23:26.199Z,971.79
2022-11-17T06:24:26.194Z,971.75
2022-11-17T06:25:26.184Z,971.75
2022-11-17T06:26:26.178Z,971.72
2022-11-17T06:27:26.211Z,971.79
2022-11-17T06:28:26.161Z,971.80
2022-11-17T06:29:26.154Z,971.78
2022-11-17T06:30:26.148Z,971.83
2022-11-17T06:31:26.187Z,971.77
2022-11-17T06:32:26.159Z,971.70
2022-11-17T06:33:26.131Z,971.70
2022-11-17T06:34:26.113Z,971.80
2022-11-17T06:35:26.103Z,971.69
2022-11-17T06:36:26.099Z,971.76
2022-11-17T06:37:26.121Z,971.68
2022-11-17T06:38:26.086Z,971.63
2022-11-17T06:39:26.077Z,971.70
2022-11-17T06:40:26.072Z,971.76
2022-11-17T06:41:26.064Z,971.78
2022-11-17T06:42:26.082Z,971.54
2022-11-17T06:43:26.062Z,971.76
2022-11-17T06:44:26.057Z,971.73
2022-11-17T06:45:26.027Z,971.68
2022-11-17T06:46:26.022Z,971.69
2022-11-17T06:47:26.113Z,971.60
2022-11-17T06:48:26.010Z,971.57
2022-11-17T06:49:26.000Z,971.63
2022-11-17T06:50:25.993Z,971.59
2022-11-17T06:51:25.979Z,971.61
2022-11-17T06:52:26.008Z,971.66
2022-11-17T06:53:25.965Z,971.61
2022-11-17T06:54:25.957Z,971.60
2022-11-17T06:55:25.959Z,971.60
2022-11-17T06:56:25.941Z,971.52
2022-11-17T06:57:25.964Z,971.60
2022-11-17T06:58:25.934Z,971.61
2022-11-17T06:59:25.925Z,971.58
2022-11-17T07:00:25.909Z,971.57
2022-11-17T07:01:25.956Z,971.55
2022-11-17T07:02:25.923Z,971.53
2022-11-17T07:03:25.955Z,971.52
2022-11-17T07:04:25.885Z,971.55
2022-11-17T07:05:25.875Z,971.55
2022-11-17T07:06:25.867Z,971.52
2022-11-17T07:07:25.876Z,971.53
2022-11-17T07:08:25.849Z,971.55
2022-11-17T07:09:25.834Z,971.48
2022-11-17T07:10:25.828Z,971.54
2022-11-17T07:11:25.828Z,971.58
2022-11-17T07:12:25.865Z,971.53
2022-11-17T07:13:25.811Z,971.55
2022-11-17T07:14:25.791Z,971.54
2022-11-17T07:15:26.785Z,971.50
2022-11-17T07:16:25.786Z,971.51
2022-11-17T07:17:25.803Z,971.46
2022-11-17T07:18:25.769Z,971.51
2022-11-17T07:19:25.757Z,971.36
2022-11-17T07:20:25.754Z,971.35
2022-11-17T07:21:25.751Z,971.41
2022-11-17T07:22:25.810Z,971.36
2022-11-17T07:23:25.722Z,971.40
2022-11-17T07:24:25.721Z,971.40
2022-11-17T07:25:25.719Z,971.46
2022-11-17T07:26:25.704Z,971.48
2022-11-17T07:27:25.696Z,971.43
2022-11-17T07:28:25.705Z,971.44
2022-11-17T07:29:25.681Z,971.47
2022-11-17T07:30:25.668Z,971.44
2022-11-17T07:31:25.657Z,971.47
2022-11-17T07:32:25.652Z,971.49
2022-11-17T07:33:25.671Z,971.54
2022-11-17T07:34:25.626Z,971.58
2022-11-17T07:35:26.698Z,971.49
2022-11-17T07:36:25.617Z,971.46
2022-11-17T07:37:25.617Z,971.56
2022-11-17T07:38:25.626Z,971.60
2022-11-17T07:39:25.589Z,971.61
2022-11-17T07:40:25.630Z,971.60
2022-11-17T07:41:25.581Z,971.60
2022-11-17T07:42:25.577Z,971.62
2022-11-17T07:43:25.593Z,971.63
2022-11-17T07:44:25.559Z,971.64
2022-11-17T07:45:31.402Z,971.66
2022-11-17T07:46:27.570Z,971.63
2022-11-17T07:47:25.532Z,971.54
2022-11-17T07:48:25.559Z,971.54
2022-11-17T07:49:25.516Z,971.60
2022-11-17T07:50:25.540Z,971.61
2022-11-17T07:51:25.500Z,971.60
2022-11-17T07:52:25.495Z,971.51
2022-11-17T07:53:25.524Z,971.48
2022-11-17T07:54:25.483Z,971.48
2022-11-17T07:55:25.480Z,971.44
2022-11-17T07:56:25.479Z,971.48
2022-11-17T07:57:25.465Z,971.50
2022-11-17T07:58:25.492Z,971.51
2022-11-17T07:59:25.450Z,971.53
2022-11-17T08:00:25.464Z,971.50
2022-11-17T08:01:25.499Z,971.49
2022-11-17T08:02:25.430Z,971.41
2022-11-17T08:03:25.495Z,971.44
2022-11-17T08:04:25.415Z,971.45
2022-11-17T08:05:25.395Z,971.45
2022-11-17T08:06:25.398Z,971.51
2022-11-17T08:07:25.451Z,971.45
2022-11-17T08:08:25.419Z,971.42
2022-11-17T08:09:25.378Z,971.43
2022-11-17T08:10:25.361Z,971.43
2022-11-17T08:11:25.352Z,971.44
2022-11-17T08:12:25.346Z,971.46
2022-11-17T08:13:25.365Z,971.41
2022-11-17T08:14:25.333Z,971.46
2022-11-17T08:15:25.324Z,971.37
2022-11-17T08:16:25.305Z,971.38
2022-11-17T08:17:25.300Z,971.30
2022-11-17T08:18:25.328Z,971.27
2022-11-17T08:19:25.286Z,971.21
2022-11-17T08:20:25.282Z,971.25
2022-11-17T08:21:25.269Z,971.29
2022-11-17T08:22:25.266Z,971.26
2022-11-17T08:23:25.368Z,971.25
2022-11-17T08:24:25.247Z,971.20
2022-11-17T08:25:25.241Z,971.21
2022-11-17T08:26:25.235Z,971.23
2022-11-17T08:27:25.229Z,971.24
2022-11-17T08:28:25.251Z,971.34
2022-11-17T08:29:25.211Z,971.28
2022-11-17T08:30:25.202Z,971.21
2022-11-17T08:31:25.198Z,971.24
2022-11-17T08:32:25.194Z,971.26
2022-11-17T08:33:25.211Z,971.15
2022-11-17T08:34:25.175Z,971.21
2022-11-17T08:35:25.167Z,971.10
2022-11-17T08:36:25.164Z,971.22
2022-11-17T08:37:25.146Z,971.21
2022-11-17T08:38:25.161Z,971.17
2022-11-17T08:39:26.214Z,971.16
2022-11-17T08:40:25.134Z,971.17
2022-11-17T08:41:25.123Z,971.23
2022-11-17T08:42:25.108Z,971.31
2022-11-17T08:43:25.127Z,971.26
2022-11-17T08:44:25.103Z,971.25
2022-11-17T08:45:25.089Z,971.24
2022-11-17T08:46:25.077Z,971.27
2022-11-17T08:47:25.069Z,971.17
2022-11-17T08:48:25.091Z,971.16
2022-11-17T08:49:25.057Z,971.17
2022-11-17T08:50:25.050Z,971.19
2022-11-17T08:51:25.045Z,971.25
2022-11-17T08:52:25.033Z,971.22
2022-11-17T08:53:25.055Z,971.19
2022-11-17T08:54:25.015Z,971.23
2022-11-17T08:55:25.057Z,971.17
2022-11-17T08:56:25.007Z,971.15
2022-11-17T08:57:25.027Z,971.16
2022-11-17T08:58:25.011Z,971.15
2022-11-17T08:59:24.980Z,971.16
2022-11-17T09:00:24.977Z,971.15
2022-11-17T09:01:24.979Z,971.13
2022-11-17T09:02:24.953Z,971.11
2022-11-17T09:03:24.978Z,971.16
2022-11-17T09:04:24.956Z,971.15
2022-11-17T09:05:24.960Z,971.17
2022-11-17T09:06:24.922Z,971.17
2022-11-17T09:07:25.058Z,971.18
2022-11-17T09:08:52.189Z,971.19
2022-11-17T09:09:26.929Z,971.15
2022-11-17T09:10:24.900Z,971.11
2022-11-17T09:11:24.880Z,971.05
2022-11-17T09:12:24.878Z,971.12
2022-11-17T09:13:24.902Z,971.07
2022-11-17T09:14:24.867Z,971.03
2022-11-17T09:15:24.851Z,971.06
2022-11-17T09:16:24.851Z,971.00
2022-11-17T09:17:24.835Z,971.02
2022-11-17T09:18:24.829Z,971.09
2022-11-17T09:19:24.849Z,970.94
2022-11-17T09:20:24.818Z,970.96
2022-11-17T09:21:24.815Z,970.99
2022-11-17T09:22:24.805Z,970.95
2022-11-17T09:23:24.794Z,970.98
2022-11-17T09:24:24.817Z,971.04
2022-11-17T09:25:24.776Z,971.04
2022-11-17T09:26:25.775Z,971.05
2022-11-17T09:27:24.784Z,971.07
2022-11-17T09:28:24.750Z,971.02
2022-11-17T09:29:24.772Z,971.08
2022-11-17T09:30:24.738Z,971.00
2022-11-17T09:31:24.766Z,971.04
2022-11-17T09:32:24.723Z,971.02
2022-11-17T09:33:24.737Z,971.04
2022-11-17T09:34:24.791Z,971.07
2022-11-17T09:35:24.706Z,971.04
2022-11-17T09:36:24.691Z,971.05
2022-11-17T09:37:24.684Z,971.06
2022-11-17T09:38:24.683Z,971.09
2022-11-17T09:39:24.691Z,971.03
2022-11-17T09:40:24.654Z,971.04
2022-11-17T09:41:24.652Z,970.95
2022-11-17T09:42:24.644Z,971.05
2022-11-17T09:43:24.639Z,971.06
2022-11-17T09:44:24.650Z,971.07
2022-11-17T09:45:24.620Z,971.13
2022-11-17T09:46:24.614Z,971.08
2022-11-17T09:47:24.599Z,971.22
2022-11-17T09:48:40.815Z,971.07
2022-11-17T09:49:26.613Z,970.96
2022-11-17T09:50:24.579Z,971.03
2022-11-17T09:51:24.571Z,970.99
2022-11-17T09:52:24.566Z,971.08
2022-11-17T09:53:24.555Z,971.05
2022-11-17T09:54:24.580Z,970.97
2022-11-17T09:55:28.430Z,971.00
2022-11-17T09:56:25.529Z,971.06
2022-11-17T09:57:24.529Z,971.07
2022-11-17T09:58:24.516Z,971.05
2022-11-17T09:59:24.599Z,971.01
2022-11-17T10:00:24.495Z,971.00
2022-11-17T10:01:24.496Z,971.00
2022-11-17T10:02:24.563Z,970.99
2022-11-17T10:03:24.474Z,971.06
2022-11-17T10:04:24.495Z,971.06
2022-11-17T10:05:24.465Z,971.10
2022-11-17T10:06:24.458Z,971.05
2022-11-17T10:07:24.486Z,971.02
2022-11-17T10:08:24.437Z,971.07
2022-11-17T10:09:26.095Z,971.09
2022-11-17T10:10:25.424Z,971.05
2022-11-17T10:11:24.419Z,971.06
2022-11-17T10:12:24.410Z,971.06
2022-11-17T10:13:24.403Z,971.03
2022-11-17T10:14:24.417Z,971.08
2022-11-17T10:15:24.386Z,970.95
2022-11-17T10:16:24.382Z,970.92
2022-11-17T10:17:24.366Z,970.91
2022-11-17T10:18:24.357Z,970.93
2022-11-17T10:19:24.402Z,971.03
2022-11-17T10:20:24.353Z,970.99
2022-11-17T10:21:24.337Z,971.07
2022-11-17T10:22:24.336Z,971.01
2022-11-17T10:23:24.329Z,971.05
2022-11-17T10:24:24.367Z,971.03
2022-11-17T10:25:24.316Z,971.00
2022-11-17T10:26:24.301Z,971.02
2022-11-17T10:27:24.295Z,971.06
2022-11-17T10:28:24.287Z,970.96
2022-11-17T10:29:24.315Z,970.99
2022-11-17T10:30:24.303Z,971.05
2022-11-17T10:31:24.336Z,970.91
2022-11-17T10:32:24.255Z,970.88
2022-11-17T10:33:24.245Z,970.97
2022-11-17T10:34:29.305Z,971.01
2022-11-17T10:35:26.258Z,971.01
2022-11-17T10:36:24.218Z,970.95
2022-11-17T10:37:24.216Z,970.96
2022-11-17T10:38:24.791Z,971.00
2022-11-17T10:39:24.202Z,970.96
2022-11-17T10:40:25.865Z,970.97
2022-11-17T10:41:25.192Z,970.98
2022-11-17T10:42:24.184Z,970.96
2022-11-17T10:43:24.166Z,970.88
2022-11-17T10:44:24.160Z,970.92
2022-11-17T10:45:24.178Z,970.92
2022-11-17T10:46:24.148Z,970.84
2022-11-17T10:47:24.138Z,970.86
2022-11-17T10:48:24.131Z,970.86
2022-11-17T10:49:24.122Z,970.86
2022-11-17T10:50:24.150Z,970.81
2022-11-17T10:51:24.111Z,970.80
2022-11-17T10:52:24.102Z,970.81
2022-11-17T10:53:24.093Z,970.76
2022-11-17T10:54:24.091Z,970.85
2022-11-17T10:55:24.105Z,970.82
2022-11-17T10:56:24.071Z,970.85
2022-11-17T10:57:24.061Z,970.82
2022-11-17T10:58:24.054Z,970.85
2022-11-17T10:59:24.050Z,970.91
2022-11-17T11:00:24.073Z,970.84
2022-11-17T11:01:25.963Z,970.82
2022-11-17T11:02:25.029Z,970.75
2022-11-17T11:03:24.018Z,970.82
2022-11-17T11:04:24.009Z,970.83
2022-11-17T11:05:24.028Z,970.79
2022-11-17T11:06:24.003Z,970.83
2022-11-17T11:07:24.031Z,970.77
2022-11-17T11:08:23.979Z,970.79
2022-11-17T11:09:23.975Z,970.73
2022-11-17T11:10:23.986Z,970.77
2022-11-17T11:11:23.961Z,970.79
2022-11-17T11:12:23.945Z,970.69
2022-11-17T11:13:24.937Z,970.71
2022-11-17T11:14:23.937Z,970.73
2022-11-17T11:15:23.942Z,970.73
2022-11-17T11:16:23.914Z,970.69
2022-11-17T11:17:23.905Z,970.73
2022-11-17T11:18:23.896Z,970.63
2022-11-17T11:19:23.889Z,970.58
2022-11-17T11:20:23.910Z,970.69
2022-11-17T11:21:23.876Z,970.71
2022-11-17T11:22:23.868Z,970.65
2022-11-17T11:23:23.859Z,970.68
2022-11-17T11:24:23.853Z,970.66
2022-11-17T11:25:23.867Z,970.68
2022-11-17T11:26:23.837Z,970.67
2022-11-17T11:27:23.831Z,970.67
2022-11-17T11:28:23.828Z,970.67
2022-11-17T11:29:23.816Z,970.72
2022-11-17T11:30:23.835Z,970.68
2022-11-17T11:31:23.801Z,970.67
2022-11-17T11:32:23.796Z,970.64
2022-11-17T11:33:23.791Z,970.68
2022-11-17T11:34:23.786Z,970.75
2022-11-17T11:35:23.798Z,970.72
2022-11-17T11:36:23.761Z,970.66
2022-11-17T11:37:23.752Z,970.68
2022-11-17T11:38:23.744Z,970.60
2022-11-17T11:39:23.742Z,970.57
2022-11-17T11:40:23.767Z,970.61
2022-11-17T11:41:23.725Z,970.57
2022-11-17T11:42:23.714Z,970.62
2022-11-17T11:43:23.708Z,970.60
2022-11-17T11:44:23.702Z,970.68
2022-11-17T11:45:23.716Z,970.66
2022-11-17T11:46:23.681Z,970.67
2022-11-17T11:47:23.677Z,970.72
2022-11-17T11:48:23.663Z,970.68
2022-11-17T11:49:23.657Z,970.75
2022-11-17T11:50:23.686Z,970.74
2022-11-17T11:51:23.642Z,970.80
2022-11-17T11:52:23.634Z,970.79
2022-11-17T11:53:23.628Z,970.83
2022-11-17T11:54:23.641Z,970.90
2022-11-17T11:55:23.612Z,970.85
2022-11-17T11:56:23.633Z,970.89
2022-11-17T11:57:23.599Z,970.81
2022-11-17T11:58:23.585Z,970.75
2022-11-17T11:59:23.580Z,970.89
2022-11-17T12:00:23.568Z,970.84
2022-11-17T12:01:23.587Z,970.86
2022-11-17T12:02:23.625Z,970.85
2022-11-17T12:03:23.612Z,970.82
2022-11-17T12:04:23.538Z,970.87
2022-11-17T12:05:23.531Z,970.90
2022-11-17T12:06:23.549Z,970.86
2022-11-17T12:07:23.565Z,970.83
2022-11-17T12:08:23.506Z,970.94
2022-11-17T12:09:23.498Z,970.95
2022-11-17T12:10:23.488Z,970.89
2022-11-17T12:11:23.524Z,970.98
2022-11-17T12:12:23.473Z,970.96
2022-11-17T12:13:23.474Z,970.93
2022-11-17T12:14:23.468Z,970.99
2022-11-17T12:15:23.451Z,971.00
2022-11-17T12:16:23.471Z,971.09
2022-11-17T12:17:23.479Z,971.09
2022-11-17T12:18:23.431Z,971.06
2022-11-17T12:19:23.420Z,971.12
2022-11-17T12:20:23.408Z,971.13
2022-11-17T12:21:23.423Z,971.16
2022-11-17T12:22:23.398Z,971.19
2022-11-17T12:23:23.398Z,971.14
2022-11-17T12:24:23.379Z,971.10
2022-11-17T12:25:23.368Z,971.16
2022-11-17T12:26:23.389Z,971.10
2022-11-17T12:27:23.357Z,971.10
2022-11-17T12:28:23.348Z,971.12